Terminal Aerodrome Forecast
Issued by NWS Upton, NY

Home | Current Version | Previous Version | Text Only | Print | Product List | Glossary On
Versions: 1 2 3 4 5 6 7 8 9 10 11 12 13 14 15 16 17 18 19 20 21 22 23 24 25 26 27 28 29 30 31 32 33 34
000
FTUS41 KOKX 262300
TAFLGA
TAF
KLGA 262340Z 2700/2724 03023G32KT 1SM -SN OVC009
     FM270400 01025G35KT 1/4SM +SN FZFG VV003
     FM271500 34024G35KT 1/2SM SN FZFG VV008
     FM272200 33020G33KT 2SM -SN BLSN OVC020=

USA.gov is the U.S. government's official web portal to all federal, state and local government web resources and services.